Time;durP1;ratioP1;P1;durP2;ratioP2;P2;SDS_P1;SDS_P2;PMS_P1;PMS_P2;Temp;Humidity;BMP_temperature;BMP_pressure;BME280_temperature;BME280_humidity;BME280_pressure;Samples;Min_cycle;Max_cycle;Signal;HPM_P1;HPM_P2
2022/08/15 04:01:00;;;;;;;7.18;3.30;;;21.70;91.90;;;;;;5681055;23;20528;-73
2022/08/15 04:03:29;;;;;;;5.70;3.22;;;21.70;92.00;;;;;;4974909;28;20054;-73
2022/08/15 04:05:57;;;;;;;5.13;3.38;;;21.70;92.20;;;;;;4974423;28;20035;-73
2022/08/15 04:08:25;;;;;;;9.55;3.42;;;21.60;92.40;;;;;;4973177;28;20186;-73
2022/08/15 04:10:52;;;;;;;4.75;3.22;;;21.60;92.60;;;;;;4970297;28;20031;-73
2022/08/15 04:13:24;;;;;;;5.90;3.50;;;21.60;92.70;;;;;;4958220;28;20036;-72
2022/08/15 04:15:51;;;;;;;4.60;3.58;;;21.60;92.80;;;;;;4953915;28;20029;-73
2022/08/15 04:18:17;;;;;;;5.40;3.20;;;21.50;92.80;;;;;;4956577;28;20091;-73
2022/08/15 04:20:43;;;;;;;5.70;3.25;;;21.50;92.90;;;;;;4956233;28;20438;-73
2022/08/15 04:23:08;;;;;;;5.32;3.30;;;21.50;93.00;;;;;;4974414;28;20045;-73
2022/08/15 04:25:38;;;;;;;4.05;2.83;;;21.40;93.20;;;;;;4974476;28;20114;-73
2022/08/15 04:28:05;;;;;;;4.75;3.00;;;21.40;93.30;;;;;;4960762;28;20075;-74
2022/08/15 04:30:33;;;;;;;3.42;2.80;;;21.40;93.40;;;;;;4970544;28;20046;-75
2022/08/15 04:33:15;;;;;;;5.10;3.03;;;21.40;93.30;;;;;;4974410;28;20050;-75
2022/08/15 04:35:49;;;;;;;5.13;3.28;;;21.40;93.40;;;;;;4974359;28;20152;-73
2022/08/15 04:38:15;;;;;;;4.47;2.85;;;21.30;93.50;;;;;;4960386;28;20043;-72
2022/08/15 04:40:42;;;;;;;4.20;2.85;;;21.30;93.70;;;;;;4974797;28;20035;-73
2022/08/15 04:43:08;;;;;;;5.60;3.25;;;21.20;93.80;;;;;;4976371;28;20039;-73
2022/08/15 04:45:34;;;;;;;3.92;3.00;;;21.20;94.00;;;;;;4977627;28;20043;-73
2022/08/15 04:48:03;;;;;;;3.45;2.72;;;21.10;94.10;;;;;;4962629;28;20047;-73
2022/08/15 04:50:35;;;;;;;4.10;2.75;;;21.10;94.20;;;;;;4957847;28;20067;-73
2022/08/15 04:53:02;;;;;;;5.30;3.13;;;21.10;94.30;;;;;;4958578;28;20335;-72
2022/08/15 04:55:28;;;;;;;4.95;2.78;;;21.10;94.40;;;;;;4957991;28;20038;-73
2022/08/15 04:57:55;;;;;;;6.35;2.90;;;21.10;94.30;;;;;;4956933;28;20039;-73
2022/08/15 05:00:25;;;;;;;4.97;2.70;;;21.10;94.40;;;;;;4957964;28;20171;-73
2022/08/15 05:03:09;;;;;;;3.88;2.50;;;21.10;94.40;;;;;;4957859;28;20405;-73
2022/08/15 05:05:38;;;;;;;3.67;2.88;;;21.10;94.40;;;;;;4958040;28;20513;-73
2022/08/15 05:08:04;;;;;;;4.15;2.95;;;21.10;94.50;;;;;;4957949;28;20059;-73
2022/08/15 05:10:30;;;;;;;3.80;2.78;;;21.10;94.50;;;;;;4957618;28;21113;-73
2022/08/15 05:12:55;;;;;;;4.70;2.58;;;21.10;94.50;;;;;;4958009;28;20035;-73
2022/08/15 05:15:22;;;;;;;3.75;2.67;;;21.10;94.60;;;;;;4957874;28;20028;-73
2022/08/15 05:17:48;;;;;;;4.78;2.97;;;21.20;94.50;;;;;;4957737;28;20044;-73
2022/08/15 05:20:17;;;;;;;6.80;3.00;;;21.30;94.50;;;;;;4956076;28;20031;-73
2022/08/15 05:23:00;;;;;;;4.05;3.00;;;21.30;94.40;;;;;;4957886;28;20118;-73
2022/08/15 05:25:26;;;;;;;5.70;2.78;;;21.40;94.50;;;;;;4957720;28;20043;-73
2022/08/15 05:27:52;;;;;;;5.25;3.00;;;21.40;94.60;;;;;;4955826;28;20040;-72
2022/08/15 05:30:19;;;;;;;5.07;2.55;;;21.40;94.50;;;;;;4957348;28;20027;-75
2022/08/15 05:32:45;;;;;;;4.72;2.92;;;21.40;94.60;;;;;;4956247;28;20031;-75
2022/08/15 05:35:14;;;;;;;6.13;2.72;;;21.40;94.80;;;;;;4957614;28;20036;-75
2022/08/15 05:37:39;;;;;;;4.55;2.90;;;21.50;94.70;;;;;;4956233;28;20102;-75
2022/08/15 05:40:08;;;;;;;4.05;2.63;;;21.50;94.70;;;;;;4957646;28;20108;-76
2022/08/15 05:42:50;;;;;;;3.53;2.70;;;21.40;94.90;;;;;;4957222;28;20532;-77
2022/08/15 05:45:17;;;;;;;3.50;2.38;;;21.50;95.00;;;;;;4957401;28;20130;-77
2022/08/15 05:47:59;;;;;;;3.35;2.30;;;21.40;95.10;;;;;;4956955;28;20458;-76
2022/08/15 05:50:33;;;;;;;4.45;2.95;;;21.50;95.10;;;;;;4957285;28;20110;-76
2022/08/15 05:53:37;;;;;;;4.07;2.72;;;21.50;95.10;;;;;;4955663;28;20042;-76
2022/08/15 05:56:26;;;;;;;5.22;2.95;;;21.50;95.00;;;;;;4962272;28;20051;-76
2022/08/15 05:58:57;;;;;;;3.00;2.70;;;21.50;95.00;;;;;;4957363;28;20036;-76
2022/08/15 06:01:45;;;;;;;3.80;2.70;;;21.40;95.20;;;;;;4955078;28;20398;-76
2022/08/15 06:04:19;;;;;;;3.08;2.80;;;21.50;95.30;;;;;;4955436;28;20075;-76
2022/08/15 06:06:47;;;;;;;5.35;3.30;;;21.50;95.30;;;;;;4957277;28;20040;-74
2022/08/15 06:09:39;;;;;;;5.65;2.75;;;21.50;95.50;;;;;;4955724;28;20091;-76
2022/08/15 06:12:12;;;;;;;5.72;3.15;;;21.60;95.30;;;;;;4956866;28;20059;-75
2022/08/15 06:14:45;;;;;;;2.97;2.58;;;21.70;95.00;;;;;;4955982;28;20126;-73
2022/08/15 06:17:32;;;;;;;6.00;2.88;;;21.70;95.00;;;;;;4963953;28;20067;-74
2022/08/15 06:20:03;;;;;;;4.30;2.63;;;21.80;95.10;;;;;;4970824;28;20041;-77
2022/08/15 06:22:53;;;;;;;3.92;2.78;;;22.00;94.80;;;;;;4975795;28;20039;-75
2022/08/15 06:25:31;;;;;;;6.05;3.15;;;22.00;94.70;;;;;;4975977;28;20038;-74
2022/08/15 06:28:32;;;;;;;3.97;2.70;;;22.00;94.60;;;;;;4976532;28;20037;-73
2022/08/15 06:31:10;;;;;;;3.80;2.92;;;22.00;95.10;;;;;;4976300;28;20089;-74
2022/08/15 06:33:49;;;;;;;4.10;2.63;;;21.90;94.90;;;;;;4976326;28;20039;-74
2022/08/15 06:36:16;;;;;;;3.22;2.80;;;21.90;95.00;;;;;;4975949;28;20413;-74
2022/08/15 06:38:54;;;;;;;4.07;3.20;;;21.80;94.90;;;;;;4974581;28;20028;-74
2022/08/15 06:41:35;;;;;;;5.47;2.97;;;21.90;95.00;;;;;;4975690;28;20043;-74
2022/08/15 06:44:01;;;;;;;5.30;2.88;;;21.80;95.20;;;;;;4975458;28;20118;-76
2022/08/15 06:46:33;;;;;;;4.45;3.10;;;21.90;95.00;;;;;;4974466;28;20516;-73
2022/08/15 06:49:07;;;;;;;4.15;2.78;;;22.00;95.00;;;;;;4976156;28;20035;-74
2022/08/15 06:51:35;;;;;;;4.03;2.97;;;22.20;94.80;;;;;;4975533;28;20071;-73
2022/08/15 06:54:01;;;;;;;4.35;2.80;;;22.10;94.70;;;;;;4975456;28;20039;-74
2022/08/15 06:56:33;;;;;;;4.43;2.95;;;22.20;94.70;;;;;;4975733;28;20035;-74
2022/08/15 06:59:22;;;;;;;3.42;3.08;;;22.30;94.60;;;;;;4975670;28;20553;-73
2022/08/15 07:02:06;;;;;;;4.53;3.38;;;22.40;94.00;;;;;;4975077;28;20523;-73
2022/08/15 07:04:57;;;;;;;4.78;2.90;;;22.60;93.70;;;;;;4975443;28;20036;-74
2022/08/15 07:07:26;;;;;;;5.78;3.28;;;22.60;93.70;;;;;;4974196;28;20035;-73
2022/08/15 07:10:00;;;;;;;6.68;3.15;;;22.80;93.20;;;;;;4974085;28;20035;-73
2022/08/15 07:12:32;;;;;;;6.03;3.05;;;22.80;93.20;;;;;;4975817;28;20039;-80
2022/08/15 07:15:24;;;;;;;4.40;2.75;;;22.70;93.50;;;;;;4974322;28;20087;-77
2022/08/15 07:17:57;;;;;;;4.20;2.67;;;22.80;93.40;;;;;;4974957;28;20058;-77
2022/08/15 07:20:22;;;;;;;4.80;2.75;;;23.00;92.80;;;;;;4976205;28;20035;-79
2022/08/15 07:22:48;;;;;;;5.88;2.65;;;23.20;92.40;;;;;;4974859;28;20043;-77
2022/08/15 07:25:18;;;;;;;4.10;2.40;;;23.30;92.20;;;;;;4975308;28;20430;-77
2022/08/15 07:28:04;;;;;;;3.33;2.40;;;23.30;91.80;;;;;;4975444;28;20039;-77
2022/08/15 07:31:01;;;;;;;3.22;2.42;;;23.30;91.70;;;;;;4975136;28;20074;-77
2022/08/15 07:33:36;;;;;;;4.07;2.63;;;23.30;91.80;;;;;;4976332;28;20039;-75
2022/08/15 07:36:11;;;;;;;3.83;2.30;;;23.30;91.70;;;;;;4978246;28;20043;-81
2022/08/15 07:38:37;;;;;;;2.40;2.20;;;23.30;91.30;;;;;;4975673;28;20087;-73
2022/08/15 07:41:18;;;;;;;3.30;2.17;;;23.10;91.50;;;;;;4974938;28;20038;-73
2022/08/15 07:43:45;;;;;;;3.80;2.50;;;22.90;91.70;;;;;;4974327;28;20035;-83
2022/08/15 07:46:19;;;;;;;4.30;2.55;;;22.80;92.30;;;;;;4975449;28;20116;-76
2022/08/15 07:49:14;;;;;;;3.15;2.50;;;22.60;92.50;;;;;;4975756;28;20023;-75
2022/08/15 07:51:44;;;;;;;5.38;2.55;;;22.20;93.30;;;;;;4975216;28;20110;-77
2022/08/15 07:54:29;;;;;;;2.75;2.28;;;22.20;93.50;;;;;;4975387;28;20082;-76
2022/08/15 07:57:00;;;;;;;3.53;2.47;;;22.30;93.50;;;;;;4975542;28;20535;-78
2022/08/15 07:59:30;;;;;;;4.00;2.55;;;22.50;93.20;;;;;;4975185;28;20032;-76
2022/08/15 08:02:23;;;;;;;3.95;2.20;;;22.30;93.30;;;;;;4974517;28;20047;-74
2022/08/15 08:04:49;;;;;;;3.10;2.40;;;22.40;93.40;;;;;;4975143;28;20541;-75
2022/08/15 08:07:22;;;;;;;4.90;2.75;;;22.70;92.90;;;;;;4975349;28;20118;-75
2022/08/15 08:09:55;;;;;;;2.80;2.20;;;22.80;92.50;;;;;;4975342;28;20046;-73
2022/08/15 08:12:52;;;;;;;3.00;2.45;;;23.20;92.20;;;;;;4976554;28;20934;-76
2022/08/15 08:15:30;;;;;;;4.45;2.30;;;23.20;91.70;;;;;;4976834;28;20039;-75
2022/08/15 08:18:02;;;;;;;3.65;2.08;;;23.30;91.80;;;;;;4978553;28;20023;-76
2022/08/15 08:20:34;;;;;;;4.72;2.30;;;23.00;91.90;;;;;;4976934;28;20535;-76
2022/08/15 08:23:06;;;;;;;3.90;2.20;;;23.00;91.70;;;;;;4976818;28;20045;-76
2022/08/15 08:25:57;;;;;;;2.25;1.90;;;23.10;91.90;;;;;;4978133;28;20513;-76
2022/08/15 08:28:44;;;;;;;3.30;2.10;;;23.20;91.60;;;;;;4978318;28;20046;-76
2022/08/15 08:31:36;;;;;;;3.58;2.05;;;23.40;91.30;;;;;;4976582;28;20039;-75
2022/08/15 08:34:26;;;;;;;2.78;1.90;;;23.60;90.70;;;;;;4976007;28;20043;-74
2022/08/15 08:36:52;;;;;;;3.85;1.80;;;23.80;90.10;;;;;;4975597;28;20062;-74
2022/08/15 08:39:42;;;;;;;2.83;1.95;;;23.80;90.00;;;;;;4977895;28;20024;-74
2022/08/15 08:42:32;;;;;;;4.22;2.00;;;23.70;90.00;;;;;;4977184;28;20094;-73
2022/08/15 08:45:13;;;;;;;2.72;1.80;;;23.80;90.00;;;;;;4977678;28;20027;-73
2022/08/15 08:47:58;;;;;;;2.22;1.90;;;24.00;88.90;;;;;;4976296;28;20476;-74
2022/08/15 08:50:51;;;;;;;2.75;1.70;;;24.40;88.60;;;;;;4976086;28;20032;-74
2022/08/15 08:53:54;;;;;;;2.40;2.08;;;24.60;87.10;;;;;;4977640;28;20031;-74
2022/08/15 08:56:28;;;;;;;3.50;2.03;;;24.70;87.70;;;;;;4977444;28;20031;-73
2022/08/15 08:59:05;;;;;;;2.15;1.95;;;24.90;86.60;;;;;;4977504;28;20039;-74
2022/08/15 09:01:34;;;;;;;6.68;1.98;;;25.10;85.90;;;;;;4976440;28;20134;-74
2022/08/15 09:04:05;;;;;;;3.88;2.10;;;25.00;85.10;;;;;;4974882;28;20031;-74
2022/08/15 09:06:37;;;;;;;3.28;1.98;;;25.10;85.10;;;;;;4975042;28;20405;-74
2022/08/15 09:09:13;;;;;;;2.80;1.80;;;25.10;84.80;;;;;;4976619;28;20063;-74
2022/08/15 09:11:47;;;;;;;2.33;1.83;;;25.20;83.80;;;;;;4975766;28;20035;-74
2022/08/15 09:14:24;;;;;;;3.30;1.70;;;25.10;83.40;;;;;;4974506;28;20031;-74
2022/08/15 09:16:54;;;;;;;4.60;2.40;;;25.50;83.40;;;;;;4976365;28;20600;-74
2022/08/15 09:19:54;;;;;;;4.15;2.10;;;25.60;82.70;;;;;;4974712;28;20090;-74
2022/08/15 09:22:20;;;;;;;1.92;1.70;;;26.20;81.40;;;;;;4973618;28;20130;-74
2022/08/15 09:24:45;;;;;;;3.45;1.80;;;26.40;81.50;;;;;;4974231;28;20027;-74
2022/08/15 09:27:20;;;;;;;2.47;1.60;;;26.60;81.30;;;;;;4976230;28;20397;-74
2022/08/15 09:30:03;;;;;;;3.05;1.90;;;26.80;79.90;;;;;;4974521;28;20741;-74
2022/08/15 09:32:28;;;;;;;2.58;1.70;;;26.90;78.70;;;;;;4975928;28;20041;-74
2022/08/15 09:35:39;;;;;;;2.33;1.65;;;26.90;77.30;;;;;;4974101;28;20066;-74
2022/08/15 09:38:23;;;;;;;3.97;1.70;;;27.00;77.10;;;;;;4976247;28;20043;-74
2022/08/15 09:41:09;;;;;;;2.88;1.88;;;27.00;76.70;;;;;;4975198;28;20039;-74
2022/08/15 09:43:55;;;;;;;1.90;1.60;;;26.60;76.50;;;;;;4974329;28;20155;-75
2022/08/15 09:46:46;;;;;;;2.40;1.70;;;26.20;77.00;;;;;;4974019;28;20035;-75
2022/08/15 09:49:48;;;;;;;2.05;1.70;;;26.10;78.20;;;;;;4975640;28;20579;-74
2022/08/15 09:52:35;;;;;;;3.58;1.58;;;26.50;77.60;;;;;;4976009;28;20035;-75
2022/08/15 09:55:14;;;;;;;2.75;1.60;;;26.70;76.40;;;;;;4974347;28;20566;-76
2022/08/15 09:57:47;;;;;;;2.10;1.60;;;26.80;76.60;;;;;;4976100;28;20031;-74
2022/08/15 10:00:16;;;;;;;1.70;1.60;;;27.60;74.90;;;;;;4939574;28;1055496;-75
2022/08/15 10:02:44;;;;;;;2.38;1.77;;;28.40;71.10;;;;;;4976796;28;20094;-73
2022/08/15 10:05:28;;;;;;;1.85;1.58;;;28.80;69.80;;;;;;4976287;28;20054;-73
2022/08/15 10:08:01;;;;;;;3.33;1.80;;;28.90;67.40;;;;;;4976527;28;20050;-74
2022/08/15 10:10:34;;;;;;;2.97;1.80;;;29.20;69.50;;;;;;4975293;28;20027;-74
2022/08/15 10:15:44;;;;;;;2.60;1.67;;;28.90;67.90;;;;;;4954958;28;20056;-77
2022/08/15 10:18:38;;;;;;;2.83;1.50;;;28.50;69.30;;;;;;4957339;28;20036;-77
2022/08/15 10:21:20;;;;;;;1.60;1.50;;;28.10;69.80;;;;;;4955273;28;20031;-78
2022/08/15 10:23:49;;;;;;;2.28;1.73;;;27.10;70.00;;;;;;4955996;28;20098;-79
2022/08/15 10:26:18;;;;;;;2.17;1.90;;;26.70;72.10;;;;;;4956255;28;20122;-78
2022/08/15 10:28:58;;;;;;;2.85;1.50;;;27.30;71.30;;;;;;4957744;28;20067;-78
2022/08/15 10:31:28;;;;;;;5.85;1.77;;;28.30;70.00;;;;;;4956238;28;20500;-77
2022/08/15 10:33:58;;;;;;;1.60;1.50;;;28.90;65.70;;;;;;4955452;28;20521;-79
2022/08/15 10:36:30;;;;;;;1.95;1.60;;;29.50;64.90;;;;;;4957428;28;20031;-77
2022/08/15 10:39:02;;;;;;;2.08;1.67;;;29.80;64.10;;;;;;4956048;28;20131;-78
2022/08/15 10:42:01;;;;;;;3.10;2.05;;;30.10;63.40;;;;;;4957990;28;20102;-78
2022/08/15 10:44:41;;;;;;;1.85;1.70;;;30.00;63.20;;;;;;4956091;28;20076;-81
2022/08/15 10:47:15;;;;;;;3.15;2.10;;;29.60;64.20;;;;;;4971366;28;20036;-77
2022/08/15 10:49:40;;;;;;;2.30;2.03;;;29.00;66.10;;;;;;4956824;28;20091;-77
2022/08/15 10:52:20;;;;;;;2.65;1.90;;;28.70;66.40;;;;;;4956701;28;20040;-77
2022/08/15 10:55:17;;;;;;;2.75;1.70;;;28.60;67.50;;;;;;4956265;28;20454;-77
2022/08/15 10:57:48;;;;;;;4.35;2.15;;;28.60;67.10;;;;;;4956628;28;20122;-77
2022/08/15 11:00:45;;;;;;;2.78;1.70;;;28.80;66.20;;;;;;4956698;28;20039;-77
2022/08/15 11:03:38;;;;;;;2.45;1.63;;;28.50;66.30;;;;;;4956918;28;20429;-77
2022/08/15 11:06:07;;;;;;;3.15;1.80;;;28.60;66.90;;;;;;4955478;28;20494;-77
2022/08/15 11:08:35;;;;;;;2.13;1.77;;;28.20;67.10;;;;;;4956442;28;20119;-77
2022/08/15 11:11:09;;;;;;;2.85;1.90;;;28.20;67.40;;;;;;4956580;28;20462;-77
2022/08/15 11:13:36;;;;;;;1.80;1.70;;;27.80;67.00;;;;;;4955797;28;20074;-81
2022/08/15 11:16:25;;;;;;;4.95;2.10;;;27.40;69.40;;;;;;4958129;28;20155;-78
2022/08/15 11:18:55;;;;;;;2.40;2.00;;;27.80;69.30;;;;;;4958266;28;20115;-81
2022/08/15 11:21:44;;;;;;;2.85;1.80;;;28.40;67.80;;;;;;4956915;28;20544;-82
2022/08/15 11:24:11;;;;;;;2.22;1.73;;;29.00;66.20;;;;;;4957681;28;20036;-80
2022/08/15 11:26:41;;;;;;;2.65;1.83;;;28.70;66.30;;;;;;4961495;28;20034;-80
2022/08/15 11:29:20;;;;;;;4.13;1.70;;;28.90;66.10;;;;;;4960379;28;20059;-81
2022/08/15 11:31:52;;;;;;;2.63;1.70;;;29.00;65.50;;;;;;4956015;28;20036;-80
2022/08/15 11:34:35;;;;;;;1.98;1.70;;;28.80;64.30;;;;;;4956322;28;20042;-84
2022/08/15 11:37:09;;;;;;;2.55;2.05;;;28.90;64.60;;;;;;4955865;28;20490;-80
2022/08/15 11:39:40;;;;;;;1.90;1.60;;;28.80;64.70;;;;;;4957704;28;20047;-79
2022/08/15 11:42:07;;;;;;;2.72;2.00;;;28.60;66.40;;;;;;4955644;28;20071;-80
2022/08/15 11:44:43;;;;;;;1.90;1.70;;;28.40;66.60;;;;;;4956656;28;20028;-79
2022/08/15 11:47:13;;;;;;;2.00;1.80;;;28.90;66.70;;;;;;4959825;28;20036;-80
2022/08/15 11:49:49;;;;;;;3.03;1.75;;;29.60;65.00;;;;;;4958958;28;20450;-79
2022/08/15 11:52:31;;;;;;;1.80;1.67;;;29.60;62.20;;;;;;4958379;28;20032;-79
2022/08/15 11:55:15;;;;;;;4.78;2.00;;;29.30;63.10;;;;;;4959995;28;20032;-80
2022/08/15 11:57:47;;;;;;;3.47;1.80;;;29.80;63.70;;;;;;4961142;28;20041;-79
2022/08/15 12:00:41;;;;;;;3.28;2.20;;;30.00;61.40;;;;;;4959507;28;20580;-78
2022/08/15 12:03:22;;;;;;;4.13;1.95;;;29.80;61.50;;;;;;4960760;28;20070;-78
2022/08/15 12:05:50;;;;;;;2.42;1.88;;;29.40;63.50;;;;;;4959886;28;20843;-79
2022/08/15 12:08:34;;;;;;;3.05;1.92;;;29.70;63.00;;;;;;4965365;28;20040;-80
2022/08/15 12:11:05;;;;;;;2.20;1.90;;;29.50;62.60;;;;;;4959778;28;20059;-80
2022/08/15 12:13:31;;;;;;;3.35;2.10;;;29.70;63.10;;;;;;4960387;28;20078;-80
2022/08/15 12:15:57;;;;;;;2.83;2.10;;;29.80;61.80;;;;;;4960079;28;20036;-80
2022/08/15 12:18:23;;;;;;;2.90;1.77;;;30.20;61.50;;;;;;4958627;28;20036;-81
2022/08/15 12:20:55;;;;;;;3.85;2.00;;;30.90;59.30;;;;;;4958165;28;20498;-80
2022/08/15 12:23:27;;;;;;;3.05;1.80;;;30.80;58.70;;;;;;4960091;28;20040;-80
2022/08/15 12:26:08;;;;;;;2.28;2.00;;;30.30;60.70;;;;;;4959927;28;20461;-80
2022/08/15 12:28:35;;;;;;;2.58;2.00;;;30.20;60.10;;;;;;4959822;28;20047;-80
2022/08/15 12:31:31;;;;;;;1.90;1.80;;;29.80;61.30;;;;;;4958192;28;20083;-80
2022/08/15 12:34:18;;;;;;;6.32;2.22;;;29.80;62.80;;;;;;4959452;28;20034;-81
2022/08/15 12:36:44;;;;;;;3.45;1.90;;;30.70;59.70;;;;;;4959011;28;20035;-80
2022/08/15 12:39:13;;;;;;;3.22;2.08;;;30.40;59.80;;;;;;4959764;28;20036;-80
2022/08/15 12:41:42;;;;;;;2.95;2.05;;;30.60;59.30;;;;;;4957938;28;20039;-80
2022/08/15 12:44:18;;;;;;;4.50;1.98;;;30.90;58.40;;;;;;4959187;28;20466;-80
2022/08/15 12:46:44;;;;;;;4.72;2.42;;;31.50;58.00;;;;;;4958205;28;20585;-80
2022/08/15 12:49:09;;;;;;;2.72;2.10;;;31.10;58.00;;;;;;4958319;28;20091;-80
2022/08/15 12:51:35;;;;;;;2.90;2.00;;;31.20;57.90;;;;;;4959518;28;20074;-81
2022/08/15 12:54:00;;;;;;;5.50;2.40;;;31.30;57.80;;;;;;4959661;28;20035;-80
2022/08/15 12:56:26;;;;;;;6.57;2.40;;;31.30;57.80;;;;;;4959604;28;20039;-78
2022/08/15 12:58:52;;;;;;;3.45;2.35;;;31.10;56.50;;;;;;4958489;28;20490;-79
2022/08/15 13:01:17;;;;;;;3.47;2.03;;;31.00;58.00;;;;;;4959626;28;20114;-79
2022/08/15 13:03:45;;;;;;;2.97;2.22;;;31.40;56.80;;;;;;4959575;28;20584;-79
2022/08/15 13:06:28;;;;;;;4.35;2.20;;;31.40;56.00;;;;;;4959565;28;20490;-79
2022/08/15 13:08:54;;;;;;;3.55;2.50;;;31.70;56.00;;;;;;4960221;28;20123;-79
2022/08/15 13:11:21;;;;;;;2.63;2.35;;;31.90;56.90;;;;;;4958377;28;20119;-79
2022/08/15 13:13:48;;;;;;;4.78;2.47;;;32.00;56.80;;;;;;4958882;28;20040;-79
2022/08/15 13:16:14;;;;;;;3.17;2.78;;;31.90;55.70;;;;;;4960223;28;20052;-78
2022/08/15 13:18:40;;;;;;;4.25;2.40;;;31.60;55.20;;;;;;4961173;28;20074;-79
2022/08/15 13:23:52;;;;;;;3.22;2.30;;;31.60;55.40;;;;;;4960895;28;20072;-78
2022/08/15 13:26:20;;;;;;;3.35;2.47;;;31.90;55.00;;;;;;4959379;28;20035;-79
2022/08/15 13:28:47;;;;;;;4.78;2.35;;;32.10;55.10;;;;;;4958240;28;20031;-78
2022/08/15 13:31:18;;;;;;;4.07;2.40;;;32.80;54.70;;;;;;4958383;28;20115;-79
2022/08/15 13:33:46;;;;;;;3.03;2.45;;;32.80;52.90;;;;;;4957662;28;20123;-79
2022/08/15 13:36:14;;;;;;;4.65;2.20;;;33.10;52.50;;;;;;4958544;28;20032;-79
2022/08/15 13:38:46;;;;;;;4.75;2.53;;;33.30;52.70;;;;;;4958072;28;20134;-79
2022/08/15 13:41:13;;;;;;;2.95;2.15;;;34.00;52.00;;;;;;4958357;28;20028;-79
2022/08/15 13:43:43;;;;;;;3.10;2.33;;;34.60;51.40;;;;;;4957913;28;20044;-79
2022/08/15 13:46:12;;;;;;;3.53;2.05;;;35.50;49.80;;;;;;4956217;28;20032;-79
2022/08/15 13:48:42;;;;;;;3.15;2.60;;;35.10;49.20;;;;;;4956364;28;20043;-79
2022/08/15 13:51:44;;;;;;;3.05;2.53;;;34.90;49.10;;;;;;4958083;28;20479;-79
2022/08/15 13:54:11;;;;;;;5.35;2.50;;;35.10;49.20;;;;;;4961974;28;20058;-79
2022/08/15 13:56:37;;;;;;;4.22;2.50;;;35.90;47.50;;;;;;4956439;28;20122;-79
2022/08/15 13:59:06;;;;;;;3.92;2.28;;;35.60;47.80;;;;;;4957746;28;20123;-79
2022/08/15 14:01:33;;;;;;;3.70;2.80;;;35.50;47.70;;;;;;4956027;28;20409;-79
2022/08/15 14:04:05;;;;;;;3.83;2.42;;;35.90;47.00;;;;;;4955888;28;20032;-79
2022/08/15 14:06:32;;;;;;;4.07;2.65;;;36.00;46.50;;;;;;4958057;28;20040;-79
2022/08/15 14:08:57;;;;;;;3.55;2.50;;;35.70;48.60;;;;;;4957173;28;20036;-79
2022/08/15 14:11:24;;;;;;;5.05;2.25;;;36.00;47.60;;;;;;4958186;28;20036;-78
2022/08/15 14:13:50;;;;;;;3.53;2.40;;;36.50;46.40;;;;;;4957200;28;20043;-79
2022/08/15 14:16:16;;;;;;;6.13;2.60;;;37.40;45.40;;;;;;4959537;28;20051;-78
2022/08/15 14:18:44;;;;;;;4.57;2.78;;;37.00;45.50;;;;;;4957711;28;20042;-78
2022/08/15 14:21:10;;;;;;;5.10;2.40;;;37.90;45.90;;;;;;4959114;28;20043;-78
2022/08/15 14:23:36;;;;;;;5.57;2.40;;;38.40;44.60;;;;;;4960015;28;20051;-79
2022/08/15 14:26:04;;;;;;;6.95;2.70;;;38.80;43.00;;;;;;4973916;28;20036;-78
2022/08/15 14:28:31;;;;;;;3.60;2.60;;;39.00;42.10;;;;;;4961306;28;20127;-78
2022/08/15 14:30:57;;;;;;;5.25;2.60;;;39.80;41.50;;;;;;4976439;28;20095;-79
2022/08/15 14:33:27;;;;;;;3.88;2.40;;;40.80;40.30;;;;;;4961460;28;20090;-79
2022/08/15 14:35:57;;;;;;;4.82;3.05;;;39.70;41.20;;;;;;4959626;28;20031;-78
2022/08/15 14:38:25;;;;;;;4.07;2.80;;;40.10;40.90;;;;;;4957640;28;20091;-78
2022/08/15 14:40:52;;;;;;;2.70;2.50;;;38.20;41.80;;;;;;4959087;28;20036;-79
2022/08/15 14:43:19;;;;;;;6.28;2.42;;;37.60;43.30;;;;;;4959804;28;20074;-78
2022/08/15 14:45:46;;;;;;;5.05;2.60;;;38.10;43.00;;;;;;4958755;28;20031;-79
2022/08/15 14:48:15;;;;;;;4.13;2.50;;;38.30;43.60;;;;;;4961343;28;20043;-79
2022/08/15 14:50:41;;;;;;;3.90;2.70;;;38.40;42.80;;;;;;4960508;28;20031;-79
2022/08/15 14:53:08;;;;;;;4.25;2.97;;;36.10;44.70;;;;;;4956555;28;20047;-78
2022/08/15 14:55:34;;;;;;;3.03;2.40;;;34.40;47.10;;;;;;4957416;28;20027;-78
2022/08/15 14:58:01;;;;;;;3.80;2.70;;;32.80;49.50;;;;;;4957262;28;20040;-78
2022/08/15 15:00:29;;;;;;;3.33;2.92;;;31.50;52.00;;;;;;4956879;28;20031;-78
2022/08/15 15:02:55;;;;;;;4.82;3.13;;;30.90;52.90;;;;;;4956459;28;20119;-77
2022/08/15 15:05:21;;;;;;;5.00;2.80;;;30.20;54.10;;;;;;4956011;28;20120;-78
2022/08/15 15:07:47;;;;;;;5.45;3.30;;;29.70;55.40;;;;;;4955048;28;20050;-77
2022/08/15 15:10:13;;;;;;;6.05;3.15;;;29.40;56.60;;;;;;4956382;28;20054;-77
2022/08/15 15:12:39;;;;;;;5.50;2.92;;;29.10;57.20;;;;;;4954896;28;20039;-77
2022/08/15 15:15:06;;;;;;;5.63;2.88;;;28.80;58.30;;;;;;4954190;28;20059;-78
2022/08/15 15:17:33;;;;;;;8.20;3.15;;;28.50;60.10;;;;;;4956207;28;20043;-77
2022/08/15 15:19:59;;;;;;;4.70;3.50;;;28.00;69.90;;;;;;4954985;28;20155;-77
2022/08/15 15:22:25;;;;;;;7.55;3.90;;;26.90;77.40;;;;;;4957182;28;20493;-78
2022/08/15 15:24:53;;;;;;;8.82;4.32;;;25.70;89.60;;;;;;4955616;28;20028;-78
2022/08/15 15:27:19;;;;;;;18.25;5.13;;;24.10;93.80;;;;;;4957111;28;20043;-78
2022/08/15 15:29:47;;;;;;;13.75;3.70;;;22.00;99.90;;;;;;4957346;28;20872;-79
2022/08/15 15:32:13;;;;;;;17.88;4.35;;;20.60;99.90;;;;;;4956072;28;20046;-79
2022/08/15 15:34:39;;;;;;;9.68;3.03;;;19.60;99.90;;;;;;4960345;28;20038;-79
2022/08/15 15:37:04;;;;;;;15.57;3.65;;;18.80;99.90;;;;;;4958267;28;20046;-78
2022/08/15 15:39:31;;;;;;;21.52;3.35;;;18.40;99.90;;;;;;4957530;28;20082;-79
2022/08/15 15:41:57;;;;;;;5.65;2.20;;;18.00;99.90;;;;;;4956736;28;20495;-78
2022/08/15 15:44:25;;;;;;;7.13;2.63;;;17.70;99.90;;;;;;4970537;28;20039;-75
2022/08/15 15:47:05;;;;;;;6.07;2.60;;;17.60;99.90;;;;;;4955806;28;20395;-76
2022/08/15 15:49:37;;;;;;;6.03;2.75;;;17.60;99.90;;;;;;4956226;28;20464;-76
2022/08/15 15:52:12;;;;;;;6.80;2.38;;;17.50;99.90;;;;;;4955742;28;20036;-75
2022/08/15 15:54:39;;;;;;;4.95;2.22;;;17.40;99.90;;;;;;4955880;28;20032;-75
2022/08/15 15:57:04;;;;;;;4.30;2.35;;;17.40;99.90;;;;;;4955605;28;20123;-76
2022/08/15 15:59:30;;;;;;;3.78;2.90;;;17.30;99.90;;;;;;4956504;28;20233;-75
2022/08/15 16:01:56;;;;;;;6.07;3.03;;;17.30;99.90;;;;;;4970266;28;20059;-75
2022/08/15 16:04:22;;;;;;;4.25;2.60;;;17.40;99.90;;;;;;4954649;28;20057;-74
2022/08/15 16:06:47;;;;;;;3.53;2.92;;;17.40;99.90;;;;;;4968640;28;20054;-75
2022/08/15 16:09:14;;;;;;;5.80;3.20;;;17.40;99.90;;;;;;4975252;28;20436;-75
2022/08/15 16:12:07;;;;;;;7.63;3.80;;;17.60;99.90;;;;;;4976072;28;20039;-76
2022/08/15 16:14:57;;;;;;;5.43;3.28;;;17.70;99.90;;;;;;4958901;28;20134;-80
2022/08/15 16:17:56;;;;;;;4.60;2.90;;;17.80;99.90;;;;;;4955955;28;20043;-80
2022/08/15 16:20:29;;;;;;;4.45;3.10;;;18.00;99.90;;;;;;4954512;28;20459;-84
2022/08/15 16:23:05;;;;;;;7.05;3.28;;;18.00;99.90;;;;;;4954171;28;20484;-76
2022/08/15 16:25:37;;;;;;;11.00;3.88;;;18.00;99.90;;;;;;4955599;28;20457;-77
2022/08/15 16:28:09;;;;;;;7.00;3.25;;;17.90;99.90;;;;;;4954510;28;20060;-78
2022/08/15 16:30:51;;;;;;;5.35;3.15;;;17.80;99.90;;;;;;4956333;28;20055;-78
2022/08/15 16:33:28;;;;;;;5.72;3.38;;;17.80;99.90;;;;;;4958898;28;20032;-78
2022/08/15 16:36:03;;;;;;;6.22;3.00;;;17.70;99.90;;;;;;4957502;28;20115;-77
2022/08/15 16:38:43;;;;;;;8.32;4.55;;;17.80;99.90;;;;;;4959634;28;20051;-78
2022/08/15 16:41:20;;;;;;;9.57;5.40;;;17.80;99.90;;;;;;4959794;28;20111;-78
2022/08/15 16:43:49;;;;;;;6.30;3.80;;;18.00;99.90;;;;;;4959881;28;20087;-79
2022/08/15 16:46:50;;;;;;;7.28;4.20;;;18.10;99.90;;;;;;4959024;28;20055;-80
2022/08/15 16:49:45;;;;;;;6.85;4.25;;;18.00;99.90;;;;;;4959684;28;20131;-81
2022/08/15 16:52:21;;;;;;;7.93;4.55;;;17.80;99.90;;;;;;4960049;28;20490;-78
2022/08/15 16:54:55;;;;;;;9.50;6.00;;;17.80;99.90;;;;;;4959323;28;20048;-81
2022/08/15 16:57:27;;;;;;;7.85;5.22;;;17.90;99.90;;;;;;4958600;28;20111;-79
2022/08/15 17:00:09;;;;;;;7.85;4.50;;;18.20;99.90;;;;;;4957898;28;20048;-78
2022/08/15 17:02:54;;;;;;;6.55;3.80;;;18.20;99.90;;;;;;4959022;28;20135;-79
2022/08/15 17:05:28;;;;;;;7.07;4.00;;;18.20;99.90;;;;;;4939075;29;20064;-79
2022/08/15 17:08:14;;;;;;;5.53;3.20;;;18.20;99.90;;;;;;4942427;28;20032;-80
2022/08/15 17:10:46;;;;;;;4.57;3.67;;;18.30;99.90;;;;;;4958992;28;20040;-80
2022/08/15 17:13:35;;;;;;;6.30;3.63;;;18.30;99.90;;;;;;4960100;28;20032;-79
2022/08/15 17:16:15;;;;;;;7.55;3.83;;;18.50;99.90;;;;;;4958826;28;20119;-78
2022/08/15 17:18:59;;;;;;;9.50;5.45;;;18.40;99.90;;;;;;4961081;28;20868;-80
2022/08/15 17:21:27;;;;;;;6.40;3.47;;;18.50;99.90;;;;;;4961303;28;20438;-78
2022/08/15 17:24:24;;;;;;;7.57;4.82;;;18.70;99.90;;;;;;4958042;28;20079;-77
2022/08/15 17:26:57;;;;;;;8.65;6.03;;;19.00;99.90;;;;;;4960082;28;20554;-80